Check out our new BloomSky Weather System.

Active alerts


No alerts


Thunder radar  blitzortung!


Rain radar more information rain snow radar


Visit our other weather sites:

Template documentation
and downloads

And another site



Weather Underground History page Text

Daily Summary for July 10, 2017 Units:  Metric    English   Both
« Previous Day
Next Day »
Daily Weekly Monthly Yearly Custom
  High: Low: Average:
Temperature: 29.1 °C 22.6 °C 25.2 °C
Dew Point: 24.9 °C 22.4 °C 23.6 °C
Humidity: 100 % 71 % 92 %
Wind Speed: 9.7 km/h 0 km/h 1.9 km/h
Wind Gust: 19.3 km/h - -
Wind:- - SSE
Pressure: 1017.8 hPa 1013.8 hPa -
Precipitation: 28.19 mm    
Historical Graphs
 
 
Tabular Data for July 10, 2017
Time Temperature Dew Point Pressure Wind Wind Speed Wind Gust Humidity Rainfall Rate (Hourly)
00:02 23.3 °C 23 °C 1016.1 hPa East 1.6 km/h 6.4 km/h 98 % 3.3 mm
00:07 23.3 °C 23 °C 1015.8 hPa Calm   6.4 km/h 98 % 3.05 mm
00:12 23.2 °C 22.9 °C 1015.5 hPa ESE 3.2 km/h 6.4 km/h 98 % 3.05 mm
00:17 23.1 °C 22.8 °C 1015.5 hPa SE 3.2 km/h 6.4 km/h 98 % 2.79 mm
00:22 23.1 °C 22.8 °C 1015.1 hPa East 3.2 km/h 6.4 km/h 98 % 2.79 mm
00:27 23.1 °C 22.8 °C 1014.8 hPa Calm   6.4 km/h 98 % 2.54 mm
00:32 23.2 °C 23 °C 1014.8 hPa SSE 3.2 km/h 6.4 km/h 99 % 2.03 mm
00:37 23.3 °C 23.1 °C 1014.8 hPa SE 1.6 km/h 6.4 km/h 99 % 1.78 mm
00:42 23.3 °C 23.1 °C 1014.4 hPa SE 4.8 km/h 4.8 km/h 99 % 1.78 mm
00:47 23.3 °C 23.1 °C 1014.4 hPa ESE 4.8 km/h 8 km/h 99 % 1.52 mm
00:52 23.3 °C 23.1 °C 1014.4 hPa SSE 6.4 km/h 8 km/h 99 % 1.27 mm
00:57 23.2 °C 22.9 °C 1014.4 hPa South 3.2 km/h 9.7 km/h 98 % 0.76 mm
01:02 23.2 °C 22.9 °C 1014.1 hPa SSE 1.6 km/h 9.7 km/h 98 % 0.76 mm
01:07 23.1 °C 22.8 °C 1014.1 hPa East 3.2 km/h 9.7 km/h 98 % 0.76 mm
01:12 23 °C 22.7 °C 1014.1 hPa ESE 3.2 km/h 9.7 km/h 98 % 0.51 mm
01:17 23.1 °C 22.9 °C 1013.8 hPa Calm   4.8 km/h 99 % 0.51 mm
01:18 23.1 °C 22.9 °C 1013.8 hPa Calm   4.8 km/h 99 % 0.51 mm
01:23 23 °C 22.8 °C 1013.8 hPa South 1.6 km/h 4.8 km/h 99 % 0.25 mm
01:28 22.9 °C 22.6 °C 1014.1 hPa Calm   6.4 km/h 98 % 0.25 mm
01:33 22.9 °C 22.7 °C 1013.8 hPa Calm   6.4 km/h 99 % 0.25 mm
01:38 23 °C 22.8 °C 1013.8 hPa SSW 1.6 km/h 6.4 km/h 99 % 0.25 mm
01:43 23 °C 22.8 °C 1014.1 hPa South 3.2 km/h 6.4 km/h 99 % 0.25 mm
01:48 23 °C 22.8 °C 1013.8 hPa Calm   6.4 km/h 99 % 0.25 mm
01:53 23 °C 22.8 °C 1014.1 hPa SSW 1.6 km/h 9.7 km/h 99 % 0.25 mm
01:58 23 °C 22.8 °C 1014.1 hPa SSE 3.2 km/h 9.7 km/h 99 % 0.25 mm
02:03 23 °C 22.8 °C 1014.1 hPa South 4.8 km/h 9.7 km/h 99 % 0 mm
02:08 23 °C 22.8 °C 1014.1 hPa South 3.2 km/h 8 km/h 99 % 0 mm
02:13 23 °C 22.8 °C 1014.1 hPa SSW 3.2 km/h 8 km/h 99 % 0 mm
02:19 23 °C 22.8 °C 1014.1 hPa Calm   8 km/h 99 % 0 mm
02:24 23.1 °C 22.9 °C 1014.1 hPa Calm   6.4 km/h 99 % 0 mm
02:29 23.1 °C 22.9 °C 1014.4 hPa Calm   6.4 km/h 99 % 0 mm
02:34 23.1 °C 22.9 °C 1014.4 hPa Calm   4.8 km/h 99 % 0 mm
02:39 23.1 °C 22.9 °C 1014.4 hPa Calm   4.8 km/h 99 % 0 mm
02:43 23.1 °C 22.9 °C 1014.4 hPa Calm   3.2 km/h 99 % 0 mm
02:48 23.1 °C 22.9 °C 1014.4 hPa Calm   1.6 km/h 99 % 0 mm
02:49 23.1 °C 22.9 °C 1014.4 hPa Calm   1.6 km/h 99 % 0 mm
02:54 23.1 °C 22.9 °C 1014.4 hPa Calm   1.6 km/h 99 % 0 mm
02:59 23.1 °C 22.9 °C 1014.8 hPa Calm   1.6 km/h 99 % 0 mm
03:04 23.1 °C 22.9 °C 1014.8 hPa Calm   1.6 km/h 99 % 0 mm
03:09 23.2 °C 23 °C 1014.8 hPa Calm   1.6 km/h 99 % 0 mm
03:14 23.1 °C 22.9 °C 1014.8 hPa Calm   1.6 km/h 99 % 0 mm
03:19 23.1 °C 22.9 °C 1014.8 hPa Calm   1.6 km/h 99 % 0 mm
03:24 23.1 °C 22.9 °C 1014.8 hPa Calm   1.6 km/h 99 % 0 mm
03:29 23.1 °C 22.9 °C 1014.8 hPa Calm   1.6 km/h 99 % 0 mm
03:34 23.1 °C 22.9 °C 1014.8 hPa Calm   1.6 km/h 99 % 0 mm
03:39 23.1 °C 22.9 °C 1014.8 hPa Calm   1.6 km/h 99 % 0 mm
03:44 23.1 °C 22.9 °C 1014.8 hPa Calm   1.6 km/h 99 % 0 mm
03:49 23.1 °C 22.9 °C 1014.8 hPa Calm   1.6 km/h 99 % 0 mm
03:54 23.1 °C 22.9 °C 1014.8 hPa Calm   1.6 km/h 99 % 0 mm
04:58 23.2 °C 23 °C 1014.8 hPa Calm   3.2 km/h 99 % 0 mm
05:03 23.1 °C 22.9 °C 1015.1 hPa Calm   3.2 km/h 99 % 0 mm
05:08 23.1 °C 22.9 °C 1015.1 hPa Calm   1.6 km/h 99 % 0 mm
05:13 23.2 °C 23 °C 1015.1 hPa SE 1.6 km/h 1.6 km/h 99 % 0 mm
05:18 23.2 °C 23 °C 1015.1 hPa Calm   3.2 km/h 99 % 0 mm
05:23 23.2 °C 23 °C 1015.5 hPa Calm   3.2 km/h 99 % 0 mm
05:28 23.2 °C 23 °C 1015.5 hPa Calm   3.2 km/h 99 % 0 mm
05:33 23.2 °C 23 °C 1015.5 hPa Calm   4.8 km/h 99 % 0 mm
05:38 23.2 °C 23 °C 1015.5 hPa North 6.4 km/h 6.4 km/h 99 % 0 mm
05:43 23.1 °C 22.9 °C 1015.5 hPa NW 1.6 km/h 8 km/h 99 % 0 mm
05:48 23.1 °C 22.9 °C 1015.8 hPa Calm   8 km/h 99 % 0 mm
05:53 23.1 °C 22.9 °C 1015.8 hPa NNW 1.6 km/h 8 km/h 99 % 0 mm
06:58 22.8 °C 22.6 °C 1015.8 hPa Calm   9.7 km/h 99 % 0 mm
07:03 22.9 °C 22.7 °C 1016.1 hPa Calm   4.8 km/h 99 % 0 mm
07:08 22.9 °C 22.7 °C 1016.5 hPa Calm   4.8 km/h 99 % 0.76 mm
07:13 22.9 °C 22.7 °C 1016.1 hPa ENE 1.6 km/h 1.6 km/h 99 % 5.08 mm
07:18 22.8 °C 22.6 °C 1015.8 hPa NE 3.2 km/h 6.4 km/h 99 % 11.43 mm
07:23 22.7 °C 22.5 °C 1015.8 hPa East 3.2 km/h 6.4 km/h 99 % 13.72 mm
07:28 22.6 °C 22.4 °C 1016.1 hPa NW 1.6 km/h 6.4 km/h 99 % 14.22 mm
07:33 22.6 °C 22.4 °C 1016.1 hPa Calm   6.4 km/h 99 % 14.22 mm
07:38 22.6 °C 22.4 °C 1016.1 hPa Calm   6.4 km/h 99 % 14.22 mm
07:43 22.7 °C 22.5 °C 1016.5 hPa East 3.2 km/h 6.4 km/h 99 % 14.22 mm
07:48 22.7 °C 22.5 °C 1016.5 hPa Calm   6.4 km/h 99 % 14.22 mm
07:53 22.8 °C 22.6 °C 1016.5 hPa Calm   4.8 km/h 99 % 14.22 mm
07:58 22.8 °C 22.6 °C 1016.5 hPa Calm   4.8 km/h 99 % 14.22 mm
08:03 22.9 °C 22.7 °C 1016.5 hPa Calm   3.2 km/h 99 % 14.22 mm
08:08 22.9 °C 22.7 °C 1016.5 hPa Calm   6.4 km/h 99 % 13.21 mm
08:13 23 °C 22.8 °C 1016.5 hPa Calm   6.4 km/h 99 % 9.14 mm
08:18 23.1 °C 22.9 °C 1016.5 hPa Calm   6.4 km/h 99 % 2.54 mm
08:23 23.1 °C 22.9 °C 1016.5 hPa NE 3.2 km/h 4.8 km/h 99 % 0.76 mm
08:28 23.2 °C 23 °C 1016.5 hPa Calm   4.8 km/h 99 % 0.25 mm
08:33 23.2 °C 23 °C 1016.5 hPa Calm   3.2 km/h 99 % 0.51 mm
08:38 23.3 °C 23.1 °C 1016.5 hPa Calm   3.2 km/h 99 % 0.51 mm
08:39 23.3 °C 23.1 °C 1016.5 hPa Calm   3.2 km/h 99 % 0.51 mm
08:44 23.3 °C 23.3 °C 1016.5 hPa Calm   3.2 km/h 100 % 0.51 mm
08:49 23.3 °C 23.1 °C 1016.5 hPa Calm   3.2 km/h 99 % 0.51 mm
08:54 23.4 °C 23.2 °C 1016.8 hPa Calm   4.8 km/h 99 % 0.51 mm
08:59 23.5 °C 23.5 °C 1016.8 hPa Calm   4.8 km/h 100 % 0.51 mm
09:04 23.8 °C 23.8 °C 1016.8 hPa Calm   4.8 km/h 100 % 0.51 mm
09:09 23.9 °C 23.9 °C 1017.2 hPa Calm   3.2 km/h 100 % 0.51 mm
09:14 23.9 °C 23.9 °C 1017.2 hPa West 3.2 km/h 3.2 km/h 100 % 0.51 mm
09:19 23.8 °C 23.6 °C 1017.2 hPa SW 1.6 km/h 4.8 km/h 99 % 0.51 mm
09:24 23.7 °C 23.5 °C 1017.2 hPa WSW 1.6 km/h 6.4 km/h 99 % 0.76 mm
09:29 23.6 °C 23.4 °C 1017.5 hPa ENE 4.8 km/h 6.4 km/h 99 % 1.27 mm
09:34 23.6 °C 23.4 °C 1017.5 hPa Calm   6.4 km/h 99 % 4.57 mm
09:39 23.7 °C 23.5 °C 1017.5 hPa NW 6.4 km/h 6.4 km/h 99 % 5.84 mm
09:44 23.4 °C 23.2 °C 1017.8 hPa NW 6.4 km/h 8 km/h 99 % 6.1 mm
09:49 23.2 °C 23 °C 1017.8 hPa NW 1.6 km/h 12.9 km/h 99 % 6.1 mm
09:54 23.1 °C 22.9 °C 1017.8 hPa NW 4.8 km/h 12.9 km/h 99 % 6.35 mm
10:00 22.9 °C 22.7 °C 1017.8 hPa NNW 6.4 km/h 12.9 km/h 99 % 6.35 mm
10:05 22.9 °C 22.7 °C 1017.8 hPa WNW 4.8 km/h 14.5 km/h 99 % 6.6 mm
10:10 22.9 °C 22.7 °C 1017.8 hPa NNW 8 km/h 14.5 km/h 99 % 8.64 mm
10:15 22.9 °C 22.7 °C 1017.8 hPa NNE 6.4 km/h 19.3 km/h 99 % 10.67 mm
10:20 23 °C 22.8 °C 1017.8 hPa NNW 3.2 km/h 19.3 km/h 99 % 11.43 mm
10:25 23.1 °C 22.9 °C 1017.5 hPa Calm   17.7 km/h 99 % 11.18 mm
10:30 23 °C 22.8 °C 1017.5 hPa Calm   8 km/h 99 % 7.62 mm
10:35 23.1 °C 22.9 °C 1017.5 hPa Calm   6.4 km/h 99 % 6.6 mm
10:40 23.1 °C 22.9 °C 1017.8 hPa Calm   3.2 km/h 99 % 6.35 mm
10:45 23.2 °C 23.2 °C 1017.8 hPa Calm   3.2 km/h 100 % 6.35 mm
10:51 23.3 °C 23.3 °C 1017.8 hPa Calm   1.6 km/h 100 % 6.1 mm
10:56 23.3 °C 23.3 °C 1017.8 hPa Calm   1.6 km/h 100 % 6.1 mm
11:01 23.3 °C 23.3 °C 1017.8 hPa Calm   1.6 km/h 100 % 6.1 mm
11:06 23.3 °C 23.3 °C 1017.8 hPa Calm   1.6 km/h 100 % 3.81 mm
11:10 23.3 °C 23.3 °C 1017.8 hPa Calm   1.6 km/h 100 % 1.78 mm
11:15 23.3 °C 23.3 °C 1017.8 hPa Calm   1.6 km/h 100 % 1.02 mm
11:21 23.4 °C 23.2 °C 1017.8 hPa Calm   3.2 km/h 99 % 0.76 mm
11:26 23.4 °C 23.4 °C 1017.8 hPa Calm   3.2 km/h 100 % 0.51 mm
11:31 23.4 °C 23.4 °C 1017.8 hPa NW 1.6 km/h 3.2 km/h 100 % 0.25 mm
11:36 23.3 °C 23.1 °C 1017.8 hPa NW 4.8 km/h 4.8 km/h 99 % 0.25 mm
11:41 23.2 °C 23 °C 1017.8 hPa WNW 1.6 km/h 4.8 km/h 99 % 0.25 mm
11:46 23.2 °C 23 °C 1017.8 hPa NW 3.2 km/h 6.4 km/h 99 % 0.25 mm
11:51 23.2 °C 23 °C 1017.8 hPa Calm   6.4 km/h 99 % 0.25 mm
11:56 23.2 °C 23 °C 1017.8 hPa NW 1.6 km/h 6.4 km/h 99 % 0.25 mm
12:01 23.1 °C 22.9 °C 1017.8 hPa Calm   4.8 km/h 99 % 0 mm
12:06 23.2 °C 23 °C 1017.8 hPa Calm   4.8 km/h 99 % 0 mm
12:11 23.2 °C 23 °C 1017.5 hPa Calm   4.8 km/h 99 % 0 mm
12:16 23.3 °C 23.1 °C 1017.5 hPa Calm   4.8 km/h 99 % 0 mm
12:21 23.3 °C 23.1 °C 1017.5 hPa Calm   4.8 km/h 99 % 0 mm
12:26 23.6 °C 23.4 °C 1017.5 hPa Calm   4.8 km/h 99 % 0 mm
12:31 23.6 °C 23.6 °C 1017.5 hPa Calm   4.8 km/h 100 % 0 mm
12:36 23.6 °C 23.6 °C 1017.5 hPa Calm   1.6 km/h 100 % 0 mm
12:41 23.6 °C 23.4 °C 1017.5 hPa Calm   1.6 km/h 99 % 0 mm
12:46 23.4 °C 23.2 °C 1017.5 hPa Calm   1.6 km/h 99 % 0 mm
12:51 23.4 °C 23.2 °C 1017.5 hPa Calm   1.6 km/h 99 % 0 mm
12:56 23.7 °C 23.5 °C 1017.2 hPa Calm   1.6 km/h 99 % 0 mm
13:01 23.7 °C 23.5 °C 1017.2 hPa Calm   1.6 km/h 99 % 0 mm
13:06 23.9 °C 23.7 °C 1017.2 hPa Calm   1.6 km/h 99 % 0 mm
13:08 23.9 °C 23.7 °C 1017.2 hPa NNW 3.2 km/h 3.2 km/h 99 % 0 mm
13:13 23.9 °C 23.7 °C 1017.2 hPa NW 1.6 km/h 3.2 km/h 99 % 0 mm
13:18 23.9 °C 23.7 °C 1017.2 hPa Calm   3.2 km/h 99 % 0 mm
13:23 23.8 °C 23.6 °C 1017.2 hPa Calm   3.2 km/h 99 % 0 mm
13:28 24 °C 23.8 °C 1017.2 hPa Calm   3.2 km/h 99 % 0 mm
13:33 24.2 °C 24 °C 1017.2 hPa Calm   3.2 km/h 99 % 0 mm
13:38 24.2 °C 24 °C 1017.2 hPa Calm   1.6 km/h 99 % 0 mm
13:43 24.5 °C 24.2 °C 1016.8 hPa Calm   1.6 km/h 98 % 0 mm
13:48 24.6 °C 24.3 °C 1016.8 hPa Calm   1.6 km/h 98 % 0 mm
13:53 24.6 °C 24.3 °C 1016.8 hPa Calm   1.6 km/h 98 % 0 mm
13:58 24.8 °C 24.3 °C 1016.5 hPa Calm   3.2 km/h 97 % 0 mm
14:03 25.2 °C 24.7 °C 1016.5 hPa Calm   3.2 km/h 97 % 0 mm
14:08 25.4 °C 24.7 °C 1016.5 hPa Calm   3.2 km/h 96 % 0 mm
14:13 25.7 °C 24.8 °C 1016.5 hPa Calm   1.6 km/h 95 % 0 mm
14:18 26.1 °C 24.9 °C 1016.5 hPa Calm   1.6 km/h 93 % 0 mm
14:23 26.3 °C 24.9 °C 1016.5 hPa Calm   1.6 km/h 92 % 0 mm
14:28 26.6 °C 24.8 °C 1016.5 hPa Calm   1.6 km/h 90 % 0 mm
14:33 26.9 °C 24.7 °C 1016.5 hPa ESE 1.6 km/h 3.2 km/h 88 % 0 mm
14:38 27.1 °C 24.4 °C 1016.1 hPa Calm   3.2 km/h 85 % 0 mm
14:43 27.4 °C 24.3 °C 1016.1 hPa Calm   3.2 km/h 83 % 0 mm
14:48 27.8 °C 24.2 °C 1016.1 hPa ESE 1.6 km/h 3.2 km/h 81 % 0 mm
14:53 28.1 °C 24.3 °C 1016.1 hPa SE 1.6 km/h 3.2 km/h 80 % 0 mm
14:58 28.2 °C 24.4 °C 1016.1 hPa SE 4.8 km/h 6.4 km/h 80 % 0 mm
15:03 28.2 °C 24.4 °C 1016.1 hPa East 4.8 km/h 9.7 km/h 80 % 0 mm
15:08 28.3 °C 24.7 °C 1016.1 hPa SE 4.8 km/h 9.7 km/h 81 % 0 mm
15:13 28.3 °C 24.9 °C 1016.1 hPa ESE 6.4 km/h 9.7 km/h 82 % 0 mm
15:18 28.2 °C 24.4 °C 1016.1 hPa SE 1.6 km/h 8 km/h 80 % 0 mm
15:23 28.1 °C 23.9 °C 1016.1 hPa SE 3.2 km/h 8 km/h 78 % 0 mm
15:28 28 °C 24 °C 1015.8 hPa South 6.4 km/h 11.3 km/h 79 % 0 mm
15:33 28 °C 24.2 °C 1015.8 hPa East 3.2 km/h 11.3 km/h 80 % 0 mm
15:38 28.1 °C 24.5 °C 1015.8 hPa SE 4.8 km/h 11.3 km/h 81 % 0 mm
15:43 28.1 °C 24.5 °C 1015.8 hPa Calm   9.7 km/h 81 % 0 mm
15:48 28.1 °C 24.3 °C 1015.8 hPa Calm   9.7 km/h 80 % 0 mm
15:53 28.1 °C 24.3 °C 1015.5 hPa East 1.6 km/h 8 km/h 80 % 0 mm
15:58 28 °C 24.2 °C 1015.5 hPa SSE 3.2 km/h 8 km/h 80 % 0 mm
16:03 28 °C 24.4 °C 1015.5 hPa ESE 1.6 km/h 9.7 km/h 81 % 0 mm
16:08 28 °C 24.2 °C 1015.5 hPa SE 1.6 km/h 9.7 km/h 80 % 0 mm
16:13 27.9 °C 23.9 °C 1015.5 hPa SE 9.7 km/h 9.7 km/h 79 % 0 mm
16:18 27.8 °C 23.8 °C 1015.5 hPa ENE 4.8 km/h 12.9 km/h 79 % 0 mm
16:23 27.8 °C 24.2 °C 1015.5 hPa SE 6.4 km/h 12.9 km/h 81 % 0 mm
16:28 27.7 °C 24.1 °C 1015.5 hPa ESE 6.4 km/h 12.9 km/h 81 % 0 mm
16:33 27.7 °C 24.3 °C 1015.5 hPa Calm   9.7 km/h 82 % 0 mm
16:38 27.8 °C 24.6 °C 1015.5 hPa SE 1.6 km/h 9.7 km/h 83 % 0 mm
16:43 27.8 °C 24.4 °C 1015.5 hPa SSE 3.2 km/h 8 km/h 82 % 0 mm
16:48 27.8 °C 24.2 °C 1015.5 hPa South 3.2 km/h 6.4 km/h 81 % 0 mm
16:53 27.8 °C 24.4 °C 1015.5 hPa SE 1.6 km/h 9.7 km/h 82 % 0 mm
16:58 27.8 °C 24.4 °C 1015.1 hPa East 1.6 km/h 9.7 km/h 82 % 0 mm
17:03 27.8 °C 24.4 °C 1015.1 hPa Calm   9.7 km/h 82 % 0 mm
17:06 27.8 °C 24.6 °C 1015.1 hPa Calm   8 km/h 83 % 0 mm
17:11 27.8 °C 24.4 °C 1015.1 hPa SSE 8 km/h 8 km/h 82 % 0 mm
17:14 27.8 °C 24.4 °C 1015.1 hPa Calm   8 km/h 82 % 0 mm
17:19 27.8 °C 24.6 °C 1015.1 hPa Calm   8 km/h 83 % 0 mm
17:24 27.8 °C 24.6 °C 1015.1 hPa East 1.6 km/h 8 km/h 83 % 0 mm
17:29 27.8 °C 24.4 °C 1015.1 hPa ENE 3.2 km/h 8 km/h 82 % 0 mm
17:34 27.8 °C 24.2 °C 1014.8 hPa Calm   9.7 km/h 81 % 0 mm
17:39 27.9 °C 24.3 °C 1015.1 hPa Calm   9.7 km/h 81 % 0 mm
17:44 28.1 °C 24.1 °C 1014.8 hPa SE 3.2 km/h 9.7 km/h 79 % 0 mm
17:49 28.2 °C 24 °C 1014.8 hPa East 3.2 km/h 6.4 km/h 78 % 0 mm
17:54 28.4 °C 24.2 °C 1014.8 hPa East 3.2 km/h 6.4 km/h 78 % 0 mm
17:59 28.7 °C 24.5 °C 1014.8 hPa ESE 4.8 km/h 6.4 km/h 78 % 0 mm
18:04 28.8 °C 24.6 °C 1014.4 hPa SE 6.4 km/h 9.7 km/h 78 % 0 mm
18:09 28.9 °C 24.7 °C 1014.4 hPa SE 6.4 km/h 9.7 km/h 78 % 0 mm
18:14 28.9 °C 24.5 °C 1014.4 hPa SE 4.8 km/h 9.7 km/h 77 % 0 mm
18:16 28.8 °C 24.1 °C 1014.4 hPa SSE 6.4 km/h 9.7 km/h 76 % 0 mm
18:21 28.8 °C 24.1 °C 1014.4 hPa ESE 3.2 km/h 9.7 km/h 76 % 0 mm
18:25 28.7 °C 24.3 °C 1014.4 hPa SE 9.7 km/h 9.7 km/h 77 % 0 mm
18:30 28.7 °C 24.3 °C 1014.4 hPa ESE 3.2 km/h 9.7 km/h 77 % 0 mm
18:35 28.7 °C 24 °C 1014.4 hPa ENE 8 km/h 9.7 km/h 76 % 0 mm
18:40 28.8 °C 23.2 °C 1014.4 hPa ESE 6.4 km/h 12.9 km/h 72 % 0 mm
18:45 29 °C 23.2 °C 1014.4 hPa SE 8 km/h 12.9 km/h 71 % 0 mm
18:50 29.1 °C 23.5 °C 1014.4 hPa SSE 8 km/h 12.9 km/h 72 % 0 mm
18:53 29.1 °C 23.5 °C 1014.4 hPa SSE 3.2 km/h 12.9 km/h 72 % 0 mm
18:58 29.1 °C 23.8 °C 1014.4 hPa SSE 6.4 km/h 11.3 km/h 73 % 0 mm
19:03 29.1 °C 24 °C 1014.4 hPa SSE 6.4 km/h 11.3 km/h 74 % 0 mm
19:08 29.1 °C 24 °C 1014.4 hPa SE 4.8 km/h 12.9 km/h 74 % 0 mm
19:09 29.1 °C 24 °C 1014.4 hPa SSE 6.4 km/h 12.9 km/h 74 % 0 mm
19:14 29 °C 24.1 °C 1014.4 hPa ESE 3.2 km/h 12.9 km/h 75 % 0 mm
19:19 29 °C 24.1 °C 1014.4 hPa SE 3.2 km/h 12.9 km/h 75 % 0 mm
19:24 28.9 °C 24 °C 1014.4 hPa SSE 8 km/h 9.7 km/h 75 % 0 mm
19:29 28.7 °C 24 °C 1014.4 hPa SE 6.4 km/h 11.3 km/h 76 % 0 mm
19:34 28.6 °C 23.9 °C 1014.4 hPa SE 3.2 km/h 11.3 km/h 76 % 0 mm
19:39 28.4 °C 24 °C 1014.4 hPa South 4.8 km/h 11.3 km/h 77 % 0 mm
19:44 28.3 °C 23.9 °C 1014.1 hPa SE 4.8 km/h 12.9 km/h 77 % 0 mm
19:49 28.2 °C 24 °C 1014.1 hPa ESE 4.8 km/h 12.9 km/h 78 % 0 mm
19:54 28.1 °C 23.9 °C 1014.1 hPa SE 4.8 km/h 12.9 km/h 78 % 0 mm
19:59 27.9 °C 23.9 °C 1014.1 hPa ESE 4.8 km/h 8 km/h 79 % 0 mm
20:04 27.8 °C 23.8 °C 1014.1 hPa ESE 4.8 km/h 8 km/h 79 % 0 mm
20:09 27.7 °C 23.7 °C 1014.4 hPa SE 4.8 km/h 9.7 km/h 79 % 0 mm
20:14 27.7 °C 23.9 °C 1014.1 hPa ESE 1.6 km/h 9.7 km/h 80 % 0 mm
20:19 27.6 °C 23.8 °C 1014.1 hPa SSE 3.2 km/h 9.7 km/h 80 % 0 mm
20:24 27.5 °C 23.7 °C 1014.1 hPa ENE 1.6 km/h 8 km/h 80 % 0 mm
20:29 27.4 °C 23.8 °C 1014.1 hPa ESE 3.2 km/h 6.4 km/h 81 % 0 mm
20:34 27.3 °C 23.7 °C 1014.1 hPa East 1.6 km/h 4.8 km/h 81 % 0 mm
20:39 27.2 °C 23.7 °C 1014.1 hPa SE 1.6 km/h 4.8 km/h 81 % 0 mm
20:44 27.1 °C 23.8 °C 1014.1 hPa ESE 1.6 km/h 3.2 km/h 82 % 0 mm
20:49 27 °C 23.7 °C 1014.1 hPa ESE 1.6 km/h 4.8 km/h 82 % 0 mm
20:54 26.9 °C 23.8 °C 1014.4 hPa Calm   4.8 km/h 83 % 0 mm
20:59 26.8 °C 23.7 °C 1014.4 hPa Calm   4.8 km/h 83 % 0 mm
21:04 26.8 °C 23.7 °C 1014.4 hPa SE 3.2 km/h 4.8 km/h 83 % 0 mm
21:10 26.8 °C 23.9 °C 1014.4 hPa Calm   4.8 km/h 84 % 0 mm
21:15 26.7 °C 23.8 °C 1014.4 hPa Calm   8 km/h 84 % 0 mm
21:20 26.7 °C 23.8 °C 1014.4 hPa East 1.6 km/h 8 km/h 84 % 0 mm
21:25 26.7 °C 23.8 °C 1014.4 hPa Calm   8 km/h 84 % 0 mm
21:30 26.6 °C 23.7 °C 1014.4 hPa East 6.4 km/h 6.4 km/h 84 % 0 mm
21:35 26.6 °C 23.9 °C 1014.4 hPa SE 1.6 km/h 8 km/h 85 % 0 mm
21:40 26.5 °C 23.8 °C 1014.4 hPa Calm   8 km/h 85 % 0 mm
21:45 26.5 °C 24 °C 1014.4 hPa Calm   4.8 km/h 86 % 0 mm
21:50 26.4 °C 23.9 °C 1014.4 hPa Calm   4.8 km/h 86 % 0 mm
21:55 26.4 °C 23.9 °C 1014.4 hPa ESE 1.6 km/h 3.2 km/h 86 % 0 mm
22:00 26.3 °C 24 °C 1014.4 hPa Calm   3.2 km/h 87 % 0 mm
22:05 26.3 °C 24 °C 1014.8 hPa SE 1.6 km/h 3.2 km/h 87 % 0 mm
22:06 26.3 °C 24 °C 1014.8 hPa East 1.6 km/h 3.2 km/h 87 % 0 mm
22:11 26.2 °C 24.1 °C 1014.8 hPa SSE 1.6 km/h 3.2 km/h 88 % 0 mm
22:16 26.2 °C 24.1 °C 1014.8 hPa SE 1.6 km/h 4.8 km/h 88 % 0 mm
22:20 26.2 °C 24.1 °C 1014.8 hPa SSE 1.6 km/h 4.8 km/h 88 % 0 mm
22:26 26.1 °C 24 °C 1014.8 hPa SE 4.8 km/h 4.8 km/h 88 % 0 mm
22:31 26.1 °C 24.1 °C 1014.8 hPa Calm   4.8 km/h 89 % 0 mm
22:36 26 °C 24 °C 1014.8 hPa Calm   4.8 km/h 89 % 0 mm
22:41 26 °C 24 °C 1014.8 hPa SSE 3.2 km/h 4.8 km/h 89 % 0 mm
22:46 25.9 °C 23.9 °C 1014.8 hPa ESE 1.6 km/h 4.8 km/h 89 % 0 mm
22:51 25.9 °C 24.1 °C 1015.1 hPa SE 3.2 km/h 4.8 km/h 90 % 0 mm
22:56 25.9 °C 24.1 °C 1015.1 hPa SE 1.6 km/h 4.8 km/h 90 % 0 mm
23:01 25.9 °C 24.1 °C 1015.1 hPa SE 1.6 km/h 4.8 km/h 90 % 0 mm
23:06 25.8 °C 24 °C 1015.1 hPa SE 1.6 km/h 4.8 km/h 90 % 0 mm
23:11 25.9 °C 24.1 °C 1015.1 hPa Calm   4.8 km/h 90 % 0 mm
23:16 25.8 °C 24 °C 1015.1 hPa Calm   4.8 km/h 90 % 0 mm
23:21 25.8 °C 24 °C 1015.1 hPa Calm   4.8 km/h 90 % 0 mm
23:26 25.7 °C 24.1 °C 1015.1 hPa Calm   3.2 km/h 91 % 0 mm
23:31 25.7 °C 24.1 °C 1015.1 hPa SE 1.6 km/h 3.2 km/h 91 % 0 mm
23:36 25.8 °C 24.2 °C 1015.1 hPa Calm   4.8 km/h 91 % 0 mm
23:41 25.8 °C 24.2 °C 1015.1 hPa ESE 1.6 km/h 4.8 km/h 91 % 0 mm
23:46 25.8 °C 24.2 °C 1015.1 hPa Calm   4.8 km/h 91 % 0 mm
23:51 25.8 °C 24 °C 1015.1 hPa ESE 1.6 km/h 4.8 km/h 90 % 0 mm
23:56 25.8 °C 24.2 °C 1015.5 hPa ESE 1.6 km/h 4.8 km/h 91 % 0 mm
Spring, Texas: Villages of Bridgestone
Compliments of Weather Underground - 3 mb

Script developed by  Jim McMurry - jmcmurry@mwt.net Adapted for the template by  Wim van der Kuil - Leuven-Template.eu

You find our weather info also at:

UK Metoffice

WeatherCloud

Weather Underground

Mid-South Weather Network

AWEKAS

Citizen Weather Observer Program (CWOP)

HAMweather, WeatherForYou, PWS Weather

Equipment we use:

Weather-station
Davis Vantage Vue

Weather-program
Meteohub

Weather-server
Debian 7.9 x86 (Guest)

Provider
DreamHost

Davis Vantage Vue

Meteohub

Debian 7.9 x86 (Guest)

DreamHost